createdAt,value
2023-02-11T00:00:16.829Z,14.68
2023-02-11T00:01:23.878Z,15.25
2023-02-11T00:02:29.428Z,13.93
2023-02-11T00:03:33.294Z,15.88
2023-02-11T00:04:35.465Z,14.98
2023-02-11T00:05:38.460Z,13.98
2023-02-11T00:06:40.830Z,15.27
2023-02-11T00:07:44.086Z,13.90
2023-02-11T00:08:46.605Z,15.85
2023-02-11T00:09:49.503Z,16.38
2023-02-11T00:10:53.029Z,16.42
2023-02-11T00:11:55.935Z,14.75
2023-02-11T00:12:57.946Z,13.90
2023-02-11T00:14:02.341Z,16.20
2023-02-11T00:15:07.855Z,15.20
2023-02-11T00:16:12.743Z,15.23
2023-02-11T00:17:15.761Z,15.38
2023-02-11T00:18:17.719Z,16.67
2023-02-11T00:19:20.612Z,15.27
2023-02-11T00:20:22.594Z,16.40
2023-02-11T00:21:26.954Z,15.65
2023-02-11T00:22:28.882Z,17.00
2023-02-11T00:23:32.531Z,15.18
2023-02-11T00:24:36.069Z,15.75
2023-02-11T00:25:42.008Z,16.30
2023-02-11T00:26:45.201Z,15.13
2023-02-11T00:27:48.157Z,13.40
2023-02-11T00:28:51.087Z,15.23
2023-02-11T00:29:54.097Z,14.48
2023-02-11T00:30:58.166Z,14.35
2023-02-11T00:32:05.212Z,15.90
2023-02-11T00:33:07.377Z,16.25
2023-02-11T00:34:10.353Z,14.88
2023-02-11T00:35:12.460Z,15.35
2023-02-11T00:36:17.483Z,16.42
2023-02-11T00:37:19.483Z,14.80
2023-02-11T00:38:22.420Z,14.63
2023-02-11T00:39:24.351Z,16.00
2023-02-11T00:40:27.342Z,15.15
2023-02-11T00:41:29.913Z,15.57
2023-02-11T00:42:32.855Z,15.63
2023-02-11T00:43:35.909Z,15.48
2023-02-11T00:44:38.858Z,14.65
2023-02-11T00:45:40.793Z,16.25
2023-02-11T00:46:45.286Z,14.05
2023-02-11T00:47:47.326Z,15.13
2023-02-11T00:48:51.742Z,14.65
2023-02-11T00:49:53.726Z,14.98
2023-02-11T00:50:56.635Z,14.35
2023-02-11T00:51:58.640Z,15.52
2023-02-11T00:53:01.613Z,14.23
2023-02-11T00:54:03.754Z,13.15
2023-02-11T00:55:07.650Z,14.32
2023-02-11T00:56:10.586Z,15.55
2023-02-11T00:57:13.501Z,13.82
2023-02-11T00:58:15.456Z,14.65
2023-02-11T00:59:18.378Z,15.73
2023-02-11T01:00:20.504Z,14.77
2023-02-11T01:01:23.499Z,15.77
2023-02-11T01:02:26.797Z,14.07
2023-02-11T01:03:30.032Z,15.25
2023-02-11T01:04:32.021Z,14.50
2023-02-11T01:05:35.029Z,15.82
2023-02-11T01:06:36.988Z,15.70
2023-02-11T01:07:39.964Z,16.02
2023-02-11T01:08:41.985Z,14.63
2023-02-11T01:09:44.875Z,15.02
2023-02-11T01:10:54.444Z,15.73
2023-02-11T01:11:57.547Z,16.60
2023-02-11T01:12:59.741Z,16.63
2023-02-11T01:14:02.772Z,14.80
2023-02-11T01:15:05.898Z,15.80
2023-02-11T01:16:09.783Z,15.30
2023-02-11T01:17:12.274Z,15.15
2023-02-11T01:18:16.629Z,15.73
2023-02-11T01:19:18.585Z,15.93
2023-02-11T01:20:23.702Z,15.13
2023-02-11T01:21:26.150Z,15.27
2023-02-11T01:22:29.088Z,17.00
2023-02-11T01:23:31.034Z,15.85
2023-02-11T01:24:34.007Z,14.18
2023-02-11T01:25:35.919Z,15.65
2023-02-11T01:26:38.856Z,14.73
2023-02-11T01:27:40.895Z,15.10
2023-02-11T01:28:43.961Z,13.60
2023-02-11T01:29:46.111Z,14.80
2023-02-11T01:30:49.088Z,16.08
2023-02-11T01:31:51.114Z,15.48
2023-02-11T01:32:54.107Z,14.68
2023-02-11T01:33:58.394Z,14.60
2023-02-11T01:35:00.529Z,15.52
2023-02-11T01:36:05.150Z,15.25
2023-02-11T01:37:07.079Z,14.23
2023-02-11T01:38:16.624Z,16.35
2023-02-11T01:39:18.556Z,15.25
2023-02-11T01:40:21.459Z,15.18
2023-02-11T01:41:23.378Z,14.90
2023-02-11T01:42:26.359Z,14.40
2023-02-11T01:43:32.668Z,14.80
2023-02-11T01:44:40.029Z,15.02
2023-02-11T01:46:18.803Z,15.48
2023-02-11T01:47:22.609Z,15.30
2023-02-11T01:48:28.723Z,15.07
2023-02-11T01:49:35.216Z,15.43
2023-02-11T01:50:39.843Z,15.00
2023-02-11T01:51:48.062Z,14.20
2023-02-11T01:52:50.025Z,14.63
2023-02-11T01:54:12.718Z,15.40
2023-02-11T01:55:33.013Z,17.25
2023-02-11T01:56:55.787Z,15.15
2023-02-11T01:58:03.490Z,16.55
2023-02-11T01:59:11.765Z,15.65
2023-02-11T02:00:20.299Z,14.77
2023-02-11T02:01:25.520Z,15.57
2023-02-11T02:02:34.147Z,15.10
2023-02-11T02:03:39.759Z,16.20
2023-02-11T02:04:52.336Z,15.75
2023-02-11T02:05:59.822Z,15.52
2023-02-11T02:07:07.400Z,15.63
2023-02-11T02:08:17.216Z,16.00
2023-02-11T02:09:23.462Z,15.45
2023-02-11T02:10:28.881Z,15.02
2023-02-11T02:11:31.305Z,17.05
2023-02-11T02:12:34.180Z,15.65
2023-02-11T02:13:36.682Z,15.90
2023-02-11T02:14:41.366Z,15.80
2023-02-11T02:15:50.304Z,16.73
2023-02-11T02:16:52.475Z,16.02
2023-02-11T02:18:08.628Z,16.20
2023-02-11T02:19:36.666Z,14.55
2023-02-11T02:21:24.688Z,14.45
2023-02-11T02:23:02.356Z,13.65
2023-02-11T02:24:28.707Z,15.82
2023-02-11T02:26:03.813Z,16.75
2023-02-11T02:27:37.048Z,15.75
2023-02-11T02:29:05.921Z,13.48
2023-02-11T02:30:53.201Z,15.20
2023-02-11T02:32:41.013Z,14.45
2023-02-11T02:33:50.150Z,14.65
2023-02-11T02:34:58.275Z,15.82
2023-02-11T02:36:10.335Z,16.50
2023-02-11T02:37:17.641Z,14.13
2023-02-11T02:38:25.835Z,16.83
2023-02-11T02:39:31.629Z,14.95
2023-02-11T02:40:38.960Z,17.15
2023-02-11T02:41:42.778Z,15.68
2023-02-11T02:42:46.160Z,16.58
2023-02-11T02:43:50.312Z,15.40
2023-02-11T02:44:54.574Z,16.77
2023-02-11T02:45:56.782Z,16.67
2023-02-11T02:46:59.797Z,16.80
2023-02-11T02:48:03.368Z,16.85
2023-02-11T02:49:11.784Z,17.15
2023-02-11T02:50:17.656Z,16.33
2023-02-11T02:51:42.106Z,15.60
2023-02-11T02:52:55.535Z,15.80
2023-02-11T02:54:07.705Z,14.07
2023-02-11T02:55:21.919Z,15.75
2023-02-11T02:56:33.719Z,15.35
2023-02-11T02:57:47.965Z,16.83
2023-02-11T02:59:02.447Z,17.90
2023-02-11T03:00:16.106Z,14.70
2023-02-11T03:01:29.596Z,15.07
2023-02-11T03:02:37.084Z,17.02
2023-02-11T03:03:49.627Z,16.55
2023-02-11T03:04:57.717Z,17.55
2023-02-11T03:06:06.934Z,16.30
2023-02-11T03:07:17.983Z,16.45
2023-02-11T03:08:28.900Z,15.70
2023-02-11T03:09:34.315Z,16.02
2023-02-11T03:10:39.606Z,15.32
2023-02-11T03:11:41.914Z,14.98
2023-02-11T03:12:46.853Z,15.45
2023-02-11T03:13:50.637Z,16.63
2023-02-11T03:14:54.149Z,17.55
2023-02-11T03:15:58.973Z,15.52
2023-02-11T03:17:05.248Z,17.23
2023-02-11T03:18:11.572Z,15.70
2023-02-11T03:19:20.782Z,15.90
2023-02-11T03:20:23.575Z,18.00
2023-02-11T03:21:27.795Z,16.55
2023-02-11T03:22:35.575Z,17.40
2023-02-11T03:23:42.267Z,14.55
2023-02-11T03:24:45.202Z,16.40
2023-02-11T03:25:52.967Z,15.23
2023-02-11T03:26:58.783Z,17.83
2023-02-11T03:28:08.205Z,16.25
2023-02-11T03:29:14.586Z,16.52
2023-02-11T03:30:21.977Z,17.58
2023-02-11T03:31:29.850Z,15.45
2023-02-11T03:32:37.507Z,16.50
2023-02-11T03:33:44.956Z,16.60
2023-02-11T03:34:54.787Z,18.33
2023-02-11T03:36:00.551Z,16.25
2023-02-11T03:37:09.794Z,16.58
2023-02-11T03:38:17.283Z,17.30
2023-02-11T03:39:24.993Z,16.95
2023-02-11T03:40:29.740Z,16.27
2023-02-11T03:41:34.327Z,14.82
2023-02-11T03:42:40.214Z,16.75
2023-02-11T03:43:45.998Z,16.48
2023-02-11T03:44:53.467Z,17.42
2023-02-11T03:45:59.302Z,18.77
2023-02-11T03:47:02.940Z,16.45
2023-02-11T03:48:09.018Z,16.58
2023-02-11T03:49:16.723Z,15.32
2023-02-11T03:50:21.948Z,16.73
2023-02-11T03:51:26.627Z,16.77
2023-02-11T03:52:29.065Z,17.90
2023-02-11T03:53:31.991Z,16.13
2023-02-11T03:54:35.216Z,16.45
2023-02-11T03:55:41.267Z,17.40
2023-02-11T03:56:49.856Z,16.52
2023-02-11T03:57:53.395Z,16.77
2023-02-11T03:58:55.423Z,15.80
2023-02-11T04:00:00.316Z,17.02
2023-02-11T04:01:02.791Z,16.85
2023-02-11T04:02:05.719Z,15.35
2023-02-11T04:03:08.539Z,15.93
2023-02-11T04:04:11.684Z,16.45
2023-02-11T04:05:15.863Z,15.40
2023-02-11T04:06:20.174Z,16.35
2023-02-11T04:07:22.281Z,15.52
2023-02-11T04:08:25.226Z,16.27
2023-02-11T04:09:27.400Z,15.88
2023-02-11T04:10:30.317Z,16.13
2023-02-11T04:11:32.286Z,16.35
2023-02-11T04:12:35.934Z,17.10
2023-02-11T04:13:37.880Z,18.08
2023-02-11T04:14:40.886Z,16.15
2023-02-11T04:15:42.987Z,17.88
2023-02-11T04:16:45.961Z,17.45
2023-02-11T04:17:47.934Z,16.75
2023-02-11T04:18:51.079Z,16.13
2023-02-11T04:19:53.042Z,15.75
2023-02-11T04:20:55.994Z,16.13
2023-02-11T04:21:59.501Z,15.70
2023-02-11T04:23:02.475Z,16.23
2023-02-11T04:24:04.839Z,17.15
2023-02-11T04:25:09.350Z,18.33
2023-02-11T04:26:11.336Z,18.38
2023-02-11T04:27:14.247Z,17.25
2023-02-11T04:28:16.280Z,16.05
2023-02-11T04:29:19.243Z,16.45
2023-02-11T04:30:21.282Z,17.30
2023-02-11T04:31:24.361Z,16.38
2023-02-11T04:32:26.334Z,17.70
2023-02-11T04:33:29.403Z,16.67
2023-02-11T04:34:31.400Z,17.58
2023-02-11T04:35:34.364Z,17.60
2023-02-11T04:36:37.324Z,18.67
2023-02-11T04:37:40.690Z,17.88
2023-02-11T04:38:43.627Z,17.08
2023-02-11T04:39:45.575Z,17.10
2023-02-11T04:40:48.486Z,16.70
2023-02-11T04:41:50.500Z,17.73
2023-02-11T04:42:53.504Z,18.52
2023-02-11T04:43:55.538Z,17.65
2023-02-11T04:44:58.519Z,18.27
2023-02-11T04:46:00.566Z,17.50
2023-02-11T04:47:03.548Z,17.63
2023-02-11T04:48:05.810Z,17.25
2023-02-11T04:49:08.807Z,17.60
2023-02-11T04:50:10.830Z,16.75
2023-02-11T04:51:13.752Z,17.02
2023-02-11T04:52:15.716Z,16.67
2023-02-11T04:53:20.057Z,16.65
2023-02-11T04:54:22.126Z,17.75
2023-02-11T04:55:25.079Z,16.90
2023-02-11T04:56:27.099Z,15.95
2023-02-11T04:57:29.998Z,17.73
2023-02-11T04:58:31.898Z,18.67
2023-02-11T04:59:34.832Z,16.75
2023-02-11T05:00:36.799Z,17.58
2023-02-11T05:01:39.800Z,17.20
2023-02-11T05:02:41.754Z,17.42
2023-02-11T05:03:45.064Z,18.20
2023-02-11T05:04:47.131Z,19.02
2023-02-11T05:05:50.414Z,19.00
2023-02-11T05:06:52.479Z,16.67
2023-02-11T05:07:55.428Z,17.17
2023-02-11T05:08:58.741Z,16.55
2023-02-11T05:10:01.695Z,17.70
2023-02-11T05:11:03.921Z,18.27
2023-02-11T05:12:07.192Z,18.10
2023-02-11T05:13:09.142Z,18.08
2023-02-11T05:14:12.115Z,18.35
2023-02-11T05:15:14.080Z,17.20
2023-02-11T05:16:17.585Z,19.00
2023-02-11T05:17:19.559Z,18.92
2023-02-11T05:18:22.504Z,17.17
2023-02-11T05:19:24.399Z,16.85
2023-02-11T05:20:27.338Z,19.08
2023-02-11T05:21:29.470Z,17.80
2023-02-11T05:22:32.387Z,18.13
2023-02-11T05:23:34.829Z,19.23
2023-02-11T05:24:39.301Z,18.20
2023-02-11T05:25:41.321Z,17.75
2023-02-11T05:26:44.224Z,19.05
2023-02-11T05:27:46.205Z,19.30
2023-02-11T05:28:49.272Z,18.05
2023-02-11T05:29:51.242Z,18.77
2023-02-11T05:30:54.257Z,17.70
2023-02-11T05:31:56.205Z,17.00
2023-02-11T05:32:59.560Z,18.63
2023-02-11T05:34:03.954Z,19.98
2023-02-11T05:35:07.554Z,19.05
2023-02-11T05:36:11.542Z,16.33
2023-02-11T05:37:14.508Z,17.08
2023-02-11T05:38:16.747Z,19.08
2023-02-11T05:39:24.900Z,18.85
2023-02-11T05:40:28.179Z,18.35
2023-02-11T05:41:31.143Z,18.85
2023-02-11T05:42:33.101Z,16.83
2023-02-11T05:43:36.623Z,18.38
2023-02-11T05:44:38.706Z,19.25
2023-02-11T05:45:41.681Z,17.60
2023-02-11T05:46:43.696Z,18.15
2023-02-11T05:47:46.698Z,18.70
2023-02-11T05:48:48.641Z,18.00
2023-02-11T05:49:53.453Z,16.35
2023-02-11T05:50:55.420Z,19.45
2023-02-11T05:51:58.411Z,19.30
2023-02-11T05:53:00.526Z,18.65
2023-02-11T05:54:03.668Z,17.73
2023-02-11T05:55:06.325Z,18.60
2023-02-11T05:56:11.625Z,18.38
2023-02-11T05:57:14.220Z,18.75
2023-02-11T05:58:17.162Z,19.38
2023-02-11T05:59:19.104Z,18.95
2023-02-11T06:00:31.036Z,19.52
2023-02-11T06:01:33.062Z,18.40
2023-02-11T06:02:36.093Z,18.55
2023-02-11T06:03:38.148Z,19.50
2023-02-11T06:04:41.428Z,19.00
2023-02-11T06:05:45.965Z,19.13
2023-02-11T06:06:48.932Z,19.80
2023-02-11T06:07:50.964Z,17.23
2023-02-11T06:08:53.859Z,18.38
2023-02-11T06:09:55.784Z,18.65
2023-02-11T06:10:58.735Z,17.95
2023-02-11T06:12:02.077Z,18.65
2023-02-11T06:13:05.317Z,19.55
2023-02-11T06:14:07.388Z,19.17
2023-02-11T06:15:10.630Z,19.17
2023-02-11T06:16:12.816Z,18.45
2023-02-11T06:17:15.870Z,18.13
2023-02-11T06:18:17.876Z,17.98
2023-02-11T06:19:20.822Z,19.17
2023-02-11T06:20:22.739Z,16.90
2023-02-11T06:21:42.841Z,19.92
2023-02-11T06:22:46.886Z,17.52
2023-02-11T06:23:49.171Z,20.88
2023-02-11T06:25:01.412Z,18.48
2023-02-11T06:26:04.877Z,20.48
2023-02-11T06:27:09.286Z,18.55
2023-02-11T06:28:11.327Z,18.70
2023-02-11T06:29:14.358Z,20.10
2023-02-11T06:30:16.317Z,18.75
2023-02-11T06:31:19.471Z,20.17
2023-02-11T06:32:42.293Z,19.17
2023-02-11T06:33:45.188Z,18.40
2023-02-11T06:34:47.436Z,16.27
2023-02-11T06:35:50.983Z,17.30
2023-02-11T06:36:53.123Z,19.35
2023-02-11T06:37:56.171Z,22.00
2023-02-11T06:38:58.082Z,20.27
2023-02-11T06:40:01.006Z,20.67
2023-02-11T06:41:03.006Z,20.25
2023-02-11T06:42:07.985Z,19.75
2023-02-11T06:43:11.317Z,18.73
2023-02-11T06:44:14.261Z,20.75
2023-02-11T06:45:16.430Z,19.02
2023-02-11T06:46:19.473Z,18.95
2023-02-11T06:47:21.403Z,19.23
2023-02-11T06:48:24.551Z,19.52
2023-02-11T06:49:26.556Z,20.60
2023-02-11T06:50:29.562Z,18.95
2023-02-11T06:51:31.527Z,18.73
2023-02-11T06:52:34.782Z,19.35
2023-02-11T06:53:38.097Z,19.58
2023-02-11T06:54:40.991Z,19.70
2023-02-11T06:55:42.972Z,18.25
2023-02-11T06:56:45.886Z,17.25
2023-02-11T06:57:47.775Z,19.02
2023-02-11T06:58:54.591Z,18.45
2023-02-11T06:59:56.556Z,19.27
2023-02-11T07:01:00.200Z,18.65
2023-02-11T07:02:02.188Z,17.95
2023-02-11T07:03:05.371Z,16.52
2023-02-11T07:04:08.134Z,17.48
2023-02-11T07:05:11.620Z,18.50
2023-02-11T07:06:17.755Z,19.10
2023-02-11T07:07:20.669Z,17.30
2023-02-11T07:08:22.636Z,19.95
2023-02-11T07:09:25.576Z,19.10
2023-02-11T07:10:27.525Z,18.55
2023-02-11T07:11:30.562Z,17.73
2023-02-11T07:12:32.629Z,18.58
2023-02-11T07:13:35.594Z,17.30
2023-02-11T07:14:39.205Z,17.70
2023-02-11T07:15:42.098Z,18.45
2023-02-11T07:16:44.147Z,21.13
2023-02-11T07:17:47.111Z,18.35
2023-02-11T07:18:50.115Z,18.60
2023-02-11T07:19:53.118Z,18.30
2023-02-11T07:20:55.088Z,16.90
2023-02-11T07:21:58.007Z,17.33
2023-02-11T07:23:00.995Z,16.85
2023-02-11T07:24:07.313Z,18.58
2023-02-11T07:25:11.887Z,18.58
2023-02-11T07:26:15.893Z,18.42
2023-02-11T07:27:18.911Z,18.95
2023-02-11T07:28:20.869Z,18.52
2023-02-11T07:29:23.858Z,19.60
2023-02-11T07:30:27.186Z,18.65
2023-02-11T07:31:31.485Z,19.92
2023-02-11T07:32:33.515Z,17.20
2023-02-11T07:33:37.063Z,19.23
2023-02-11T07:34:40.150Z,17.33
2023-02-11T07:35:42.790Z,19.00
2023-02-11T07:36:46.060Z,17.45
2023-02-11T07:37:48.097Z,17.35
2023-02-11T07:38:51.441Z,17.33
2023-02-11T07:39:53.351Z,16.75
2023-02-11T07:40:56.353Z,18.77
2023-02-11T07:41:58.424Z,16.10
2023-02-11T07:43:03.398Z,17.58
2023-02-11T07:44:05.635Z,17.52
2023-02-11T07:45:09.396Z,18.52
2023-02-11T07:46:15.946Z,18.58
2023-02-11T07:47:19.033Z,18.33
2023-02-11T07:48:21.025Z,18.60
2023-02-11T07:49:23.954Z,18.55
2023-02-11T07:50:25.882Z,17.30
2023-02-11T07:51:30.184Z,18.90
2023-02-11T07:52:33.471Z,16.48
2023-02-11T07:53:35.434Z,17.92
2023-02-11T07:54:38.458Z,18.17
2023-02-11T07:55:40.431Z,16.80
2023-02-11T07:56:43.373Z,16.77
2023-02-11T07:57:45.386Z,16.90
2023-02-11T07:58:48.638Z,15.95
2023-02-11T07:59:50.579Z,17.70
2023-02-11T08:00:53.552Z,17.40
2023-02-11T08:01:57.878Z,17.60
2023-02-11T08:02:59.975Z,18.70
2023-02-11T08:04:04.097Z,17.70
2023-02-11T08:05:06.744Z,17.80
2023-02-11T08:06:12.433Z,18.80
2023-02-11T08:07:16.183Z,18.40
2023-02-11T08:08:19.071Z,15.90
2023-02-11T08:09:22.061Z,17.80
2023-02-11T08:10:23.986Z,17.83
2023-02-11T08:11:29.345Z,17.65
2023-02-11T08:12:31.311Z,16.88
2023-02-11T08:13:34.231Z,17.63
2023-02-11T08:14:37.209Z,17.30
2023-02-11T08:15:39.167Z,17.60
2023-02-11T08:16:42.255Z,17.50
2023-02-11T08:17:45.671Z,16.90
2023-02-11T08:18:49.071Z,19.00
2023-02-11T08:19:52.109Z,18.77
2023-02-11T08:20:54.155Z,18.00
2023-02-11T08:21:57.520Z,18.45
2023-02-11T08:23:01.423Z,19.67
2023-02-11T08:24:04.145Z,18.35
2023-02-11T08:25:08.026Z,17.85
2023-02-11T08:26:14.135Z,16.10
2023-02-11T08:27:17.025Z,17.73
2023-02-11T08:28:19.087Z,19.38
2023-02-11T08:29:22.047Z,18.10
2023-02-11T08:30:27.389Z,18.20
2023-02-11T08:31:34.320Z,18.50
2023-02-11T08:32:39.389Z,16.83
2023-02-11T08:33:42.777Z,16.63
2023-02-11T08:34:45.772Z,17.77
2023-02-11T08:35:48.703Z,17.30
2023-02-11T08:36:51.602Z,16.17
2023-02-11T08:37:54.522Z,17.15
2023-02-11T08:39:12.127Z,16.60
2023-02-11T08:40:20.377Z,16.77
2023-02-11T08:41:22.371Z,14.88
2023-02-11T08:42:25.312Z,16.08
2023-02-11T08:43:27.241Z,17.17
2023-02-11T08:44:30.715Z,16.30
2023-02-11T08:45:32.667Z,16.30
2023-02-11T08:46:35.706Z,16.45
2023-02-11T08:47:38.712Z,16.88
2023-02-11T08:48:42.275Z,16.45
2023-02-11T08:49:45.228Z,18.67
2023-02-11T08:50:47.266Z,16.75
2023-02-11T08:51:50.912Z,15.48
2023-02-11T08:52:53.850Z,16.48
2023-02-11T08:53:56.310Z,16.23
2023-02-11T08:54:59.208Z,16.05
2023-02-11T08:56:02.321Z,17.10
2023-02-11T08:57:06.046Z,15.35
2023-02-11T08:58:07.941Z,14.85
2023-02-11T08:59:14.006Z,16.13
2023-02-11T09:00:18.636Z,15.88
2023-02-11T09:01:23.606Z,17.20
2023-02-11T09:02:26.642Z,16.48
2023-02-11T09:03:29.726Z,17.20
2023-02-11T09:04:34.146Z,18.33
2023-02-11T09:05:42.196Z,16.13
2023-02-11T09:06:44.405Z,17.17
2023-02-11T09:07:47.367Z,19.83
2023-02-11T09:08:51.015Z,19.98
2023-02-11T09:09:54.019Z,21.35
2023-02-11T09:10:56.756Z,19.80
2023-02-11T09:12:01.179Z,18.95
2023-02-11T09:13:03.346Z,21.35
2023-02-11T09:14:06.339Z,20.00
2023-02-11T09:15:10.294Z,20.77
2023-02-11T09:16:18.858Z,20.17
2023-02-11T09:17:21.835Z,21.80
2023-02-11T09:18:23.905Z,20.55
2023-02-11T09:19:26.828Z,20.02
2023-02-11T09:20:31.181Z,20.83
2023-02-11T09:21:34.184Z,20.73
2023-02-11T09:22:36.139Z,19.05
2023-02-11T09:23:41.740Z,20.33
2023-02-11T09:24:43.654Z,19.95
2023-02-11T09:25:46.695Z,20.42
2023-02-11T09:26:50.399Z,20.50
2023-02-11T09:27:53.889Z,19.95
2023-02-11T09:28:57.293Z,19.33
2023-02-11T09:30:00.235Z,21.17
2023-02-11T09:31:07.081Z,20.38
2023-02-11T09:32:10.327Z,19.08
2023-02-11T09:33:12.279Z,21.67
2023-02-11T09:34:15.891Z,19.25
2023-02-11T09:35:18.098Z,20.63
2023-02-11T09:36:23.820Z,19.80
2023-02-11T09:37:26.865Z,19.08
2023-02-11T09:38:32.131Z,20.10
2023-02-11T09:39:35.091Z,20.30
2023-02-11T09:40:37.044Z,19.25
2023-02-11T09:42:08.472Z,19.67
2023-02-11T09:43:16.992Z,18.92
2023-02-11T09:44:21.813Z,17.83
2023-02-11T09:45:27.169Z,18.13
2023-02-11T09:46:33.141Z,19.67
2023-02-11T09:47:43.324Z,17.80
2023-02-11T09:48:48.948Z,20.08
2023-02-11T09:49:53.750Z,19.00
2023-02-11T09:51:01.158Z,18.85
2023-02-11T09:52:08.234Z,19.38
2023-02-11T09:53:15.979Z,19.70
2023-02-11T09:54:23.984Z,19.85
2023-02-11T09:55:29.966Z,18.67
2023-02-11T09:56:31.882Z,21.30
2023-02-11T09:57:36.849Z,20.95
2023-02-11T09:58:42.368Z,20.02
2023-02-11T09:59:45.378Z,22.63
2023-02-11T10:00:52.674Z,19.27
2023-02-11T10:02:02.115Z,21.27
2023-02-11T10:03:37.995Z,19.30
2023-02-11T10:05:06.672Z,19.00
2023-02-11T10:06:33.076Z,18.85
2023-02-11T10:07:43.413Z,17.95
2023-02-11T10:08:55.076Z,18.80
2023-02-11T10:10:09.729Z,20.17
2023-02-11T10:11:30.826Z,18.80
2023-02-11T10:12:48.213Z,17.90
2023-02-11T10:14:01.782Z,16.90
2023-02-11T10:15:17.815Z,17.85
2023-02-11T10:16:33.232Z,17.98
2023-02-11T10:17:41.981Z,16.08
2023-02-11T10:19:11.255Z,18.55
2023-02-11T10:20:26.597Z,17.80
2023-02-11T10:21:36.537Z,18.50
2023-02-11T10:22:44.142Z,17.98
2023-02-11T10:23:51.589Z,17.90
2023-02-11T10:24:58.324Z,18.60
2023-02-11T10:26:00.424Z,17.38
2023-02-11T10:27:07.748Z,17.52
2023-02-11T10:28:15.417Z,18.23
2023-02-11T10:29:34.528Z,17.90
2023-02-11T10:30:42.333Z,18.98
2023-02-11T10:31:47.715Z,16.83
2023-02-11T10:32:55.584Z,17.80
2023-02-11T10:34:02.628Z,16.55
2023-02-11T10:35:15.400Z,17.50
2023-02-11T10:36:19.901Z,17.17
2023-02-11T10:37:21.831Z,16.88
2023-02-11T10:38:26.680Z,17.92
2023-02-11T10:39:28.869Z,16.50
2023-02-11T10:40:33.746Z,17.88
2023-02-11T10:41:41.719Z,17.20
2023-02-11T10:42:49.302Z,19.13
2023-02-11T10:43:52.906Z,17.42
2023-02-11T10:45:03.434Z,16.60
2023-02-11T10:46:06.757Z,18.17
2023-02-11T10:47:14.398Z,17.70
2023-02-11T10:48:44.011Z,17.40
2023-02-11T10:49:48.150Z,16.50
2023-02-11T10:50:51.345Z,16.35
2023-02-11T10:52:13.950Z,15.25
2023-02-11T10:53:21.093Z,14.90
2023-02-11T10:54:24.425Z,15.68
2023-02-11T10:55:29.084Z,15.60
2023-02-11T10:56:33.277Z,16.85
2023-02-11T10:57:38.805Z,17.25
2023-02-11T10:58:46.116Z,17.42
2023-02-11T10:59:49.390Z,18.75
2023-02-11T11:00:55.397Z,16.25
2023-02-11T11:02:00.704Z,15.75
2023-02-11T11:03:05.485Z,18.27
2023-02-11T11:04:26.338Z,18.60
2023-02-11T11:05:33.123Z,18.17
2023-02-11T11:06:36.471Z,16.33
2023-02-11T11:07:38.465Z,17.35
2023-02-11T11:08:44.116Z,18.48
2023-02-11T11:09:51.639Z,15.82
2023-02-11T11:11:04.860Z,16.08
2023-02-11T11:12:06.864Z,15.40
2023-02-11T11:13:28.919Z,15.88
2023-02-11T11:14:31.905Z,15.93
2023-02-11T11:15:34.851Z,16.45
2023-02-11T11:16:37.981Z,15.05
2023-02-11T11:17:40.448Z,15.60
2023-02-11T11:18:45.014Z,16.67
2023-02-11T11:19:46.980Z,15.68
2023-02-11T11:20:58.312Z,16.08
2023-02-11T11:22:01.784Z,15.82
2023-02-11T11:23:16.637Z,15.25
2023-02-11T11:24:22.081Z,17.48
2023-02-11T11:25:28.173Z,18.20
2023-02-11T11:26:42.485Z,16.65
2023-02-11T11:27:50.068Z,16.20
2023-02-11T11:28:57.624Z,16.65
2023-02-11T11:30:01.572Z,18.15
2023-02-11T11:31:05.535Z,15.80
2023-02-11T11:32:15.187Z,16.10
2023-02-11T11:33:22.849Z,15.90
2023-02-11T11:34:30.760Z,14.98
2023-02-11T11:35:34.083Z,15.25
2023-02-11T11:36:38.370Z,14.85
2023-02-11T11:37:42.927Z,16.33
2023-02-11T11:38:48.656Z,18.67
2023-02-11T11:39:59.078Z,18.13
2023-02-11T11:41:19.570Z,17.15
2023-02-11T11:42:27.873Z,15.93
2023-02-11T11:43:30.167Z,16.20
2023-02-11T11:44:34.469Z,16.75
2023-02-11T11:45:36.386Z,16.90
2023-02-11T11:46:43.294Z,17.08
2023-02-11T11:47:53.542Z,16.83
2023-02-11T11:49:01.980Z,17.50
2023-02-11T11:50:28.082Z,18.25
2023-02-11T11:51:32.955Z,16.33
2023-02-11T11:52:41.707Z,18.02
2023-02-11T11:53:51.364Z,15.60
2023-02-11T11:55:02.798Z,15.70
2023-02-11T11:56:08.157Z,16.60
2023-02-11T11:57:19.023Z,15.65
2023-02-11T11:58:24.042Z,17.30
2023-02-11T11:59:25.962Z,16.27
2023-02-11T12:00:40.642Z,17.00
2023-02-11T12:01:51.677Z,16.88
2023-02-11T12:03:27.017Z,16.38
2023-02-11T12:04:59.098Z,16.00
2023-02-11T12:06:15.274Z,15.20
2023-02-11T12:07:28.092Z,15.02
2023-02-11T12:08:42.179Z,15.15
2023-02-11T12:09:56.202Z,15.65
2023-02-11T12:11:08.944Z,15.48
2023-02-11T12:12:29.270Z,16.77
2023-02-11T12:13:42.027Z,15.50
2023-02-11T12:14:53.214Z,15.90
2023-02-11T12:16:07.050Z,16.73
2023-02-11T12:17:23.706Z,15.63
2023-02-11T12:18:40.274Z,15.13
2023-02-11T12:19:58.797Z,14.55
2023-02-11T12:21:14.188Z,15.38
2023-02-11T12:22:35.161Z,16.85
2023-02-11T12:23:54.467Z,15.50
2023-02-11T12:25:25.240Z,17.90
2023-02-11T12:26:35.941Z,15.05
2023-02-11T12:27:49.543Z,14.70
2023-02-11T12:29:03.482Z,14.63
2023-02-11T12:30:33.934Z,15.13
2023-02-11T12:31:55.881Z,14.00
2023-02-11T12:33:10.714Z,14.23
2023-02-11T12:34:36.637Z,15.52
2023-02-11T12:35:52.028Z,16.90
2023-02-11T12:37:10.234Z,15.07
2023-02-11T12:38:28.651Z,14.93
2023-02-11T12:39:41.506Z,16.50
2023-02-11T12:40:46.525Z,15.70
2023-02-11T12:42:23.595Z,14.68
2023-02-11T12:43:36.960Z,16.38
2023-02-11T12:44:51.873Z,16.17
2023-02-11T12:46:18.196Z,15.48
2023-02-11T12:47:28.580Z,14.85
2023-02-11T12:48:48.354Z,14.25
2023-02-11T12:50:03.195Z,16.80
2023-02-11T12:51:17.418Z,15.95
2023-02-11T12:52:48.680Z,16.35
2023-02-11T12:54:12.451Z,16.52
2023-02-11T12:55:21.780Z,18.10
2023-02-11T12:56:30.763Z,18.15
2023-02-11T12:57:36.281Z,18.85
2023-02-11T12:58:45.526Z,17.95
2023-02-11T12:59:56.671Z,18.75
2023-02-11T13:01:04.476Z,18.50
2023-02-11T13:02:22.667Z,19.58
2023-02-11T13:03:31.917Z,17.58
2023-02-11T13:04:38.511Z,15.93
2023-02-11T13:05:45.209Z,17.10
2023-02-11T13:06:51.991Z,18.35
2023-02-11T13:08:00.355Z,21.33
2023-02-11T13:09:04.894Z,19.80
2023-02-11T13:10:25.474Z,20.30
2023-02-11T13:11:31.553Z,20.70
2023-02-11T13:12:54.934Z,20.58
2023-02-11T13:14:05.086Z,21.10
2023-02-11T13:15:13.761Z,20.58
2023-02-11T13:16:25.136Z,19.85
2023-02-11T13:17:34.048Z,21.35
2023-02-11T13:18:48.194Z,20.23
2023-02-11T13:19:54.638Z,17.52
2023-02-11T13:21:04.346Z,17.88
2023-02-11T13:22:12.071Z,17.85
2023-02-11T13:23:21.680Z,18.40
2023-02-11T13:24:33.972Z,19.92
2023-02-11T13:25:43.441Z,20.70
2023-02-11T13:26:53.523Z,21.48
2023-02-11T13:28:00.688Z,20.90
2023-02-11T13:29:19.367Z,21.60
2023-02-11T13:30:28.316Z,21.02
2023-02-11T13:31:32.047Z,19.77
2023-02-11T13:33:18.928Z,21.83
2023-02-11T13:34:25.908Z,19.58
2023-02-11T13:35:30.124Z,20.27
2023-02-11T13:36:34.267Z,19.58
2023-02-11T13:37:38.288Z,23.00
2023-02-11T13:38:41.362Z,23.08
2023-02-11T13:39:44.308Z,22.33
2023-02-11T13:40:58.848Z,21.67
2023-02-11T13:42:04.909Z,22.48
2023-02-11T13:43:20.242Z,20.95
2023-02-11T13:44:27.721Z,21.27
2023-02-11T13:45:33.951Z,21.42
2023-02-11T13:46:54.057Z,21.20
2023-02-11T13:47:58.407Z,22.25
2023-02-11T13:49:01.414Z,19.58
2023-02-11T13:50:07.290Z,20.83
2023-02-11T13:51:13.031Z,22.50
2023-02-11T13:52:25.884Z,20.17
2023-02-11T13:53:28.756Z,20.40
2023-02-11T13:54:35.557Z,20.73
2023-02-11T13:55:46.723Z,23.02
2023-02-11T13:57:28.363Z,21.83
2023-02-11T13:58:48.627Z,21.27
2023-02-11T13:59:52.346Z,25.40
2023-02-11T14:00:55.726Z,23.30
2023-02-11T14:02:24.779Z,20.75
2023-02-11T14:03:53.227Z,24.48
2023-02-11T14:05:43.329Z,23.00
2023-02-11T14:07:37.234Z,22.30
2023-02-11T14:09:01.496Z,20.80
2023-02-11T14:10:04.518Z,21.55
2023-02-11T14:11:30.954Z,21.25
2023-02-11T14:12:35.788Z,22.67
2023-02-11T14:14:04.597Z,22.67
2023-02-11T14:15:27.884Z,21.65
2023-02-11T14:16:38.098Z,27.35
2023-02-11T14:17:41.686Z,26.17
2023-02-11T14:19:01.804Z,22.10
2023-02-11T14:20:26.240Z,21.90